首页
METAR-TAF:

METAR-TAF

机场 :

Pangborn Memorial Airport

韦纳奇, 华盛顿, 美国

纬度: 47-23-56N, 经度: 120-12-25W, 海拔: 381米

当前天气观测

该预报发布于1小时和14分钟前的05:55 UTC
风速12节,风向北转西北,有时为21节阵风
温度 29°C
湿度 40%
气压 1011 hPa
能見度: 16.1公里
天空无云

METAR: KEAT 220555Z AUTO 33012G21KT 10SM CLR 29/14 A2986 RMK AO2 SLP099 T02940144 10378 20294 53008

时间: 00:09 (07:09 UTC)

预报

该预报发布于1小时和49分钟前的05:20 UTC
预报有效从22日的 06点(UTC)到 23日的 06点(UTC)
风速3节,风向西北
能見度: 10公里
天空无云
从 22日的 0800点(UTC)
风速15节,风向西北
能見度: 10公里
多云层高于15000英尺
从 22日的 1700点(UTC)
风速9节,风向西转西北
能見度: 10公里
散云层高于25000英尺
从 23日的 0000点(UTC)
风速15节,风向西北,有时为25节阵风
能見度: 10公里
天空无云

TAF: KEAT 220520Z 2206/2306 32003KT P6SM SKC FM220800 31015KT P6SM BKN150 FM221700 29009KT P6SM SCT250 FM230000 31015G25KT P6SM SKC

超过4000个机场的气象观测和天气预报(METAR&TAF报告)。

可查询的气象台以黄色和红色小点在地图上表示。

将鼠标移到小点上方,可查看气象台名称。

然后点击查看天气观测和预报。

如需切换地图:点击带黑十字的绿色按钮放大地图;点击带横线的绿色按钮缩小地图;或者点击绿色箭头查看邻近地区的地图。


METAR-TAF: